Time;durP1;ratioP1;P1;durP2;ratioP2;P2;SDS_P1;SDS_P2;PMS_P1;PMS_P2;Temp;Humidity;BMP_temperature;BMP_pressure;BME280_temperature;BME280_humidity;BME280_pressure;Samples;Min_cycle;Max_cycle;Signal;HPM_P1;HPM_P2
2020/12/23 00:00:01;;;;;;;19.23;16.80;;;14.50;99.90;;;;;;5011047;28;20527;-75
2020/12/23 00:02:26;;;;;;;18.87;16.87;;;14.50;99.90;;;;;;5011557;28;20423;-75
2020/12/23 00:04:52;;;;;;;19.80;17.27;;;14.50;99.90;;;;;;5011742;28;20483;-74
2020/12/23 00:07:18;;;;;;;19.50;16.70;;;14.50;99.90;;;;;;5010522;28;20209;-75
2020/12/23 00:09:44;;;;;;;20.17;17.13;;;14.50;99.90;;;;;;5011188;28;20177;-75
2020/12/23 00:12:11;;;;;;;19.13;16.83;;;14.50;99.90;;;;;;5010851;28;20220;-75
2020/12/23 00:14:38;;;;;;;19.73;16.80;;;14.50;99.90;;;;;;5010620;28;20456;-75
2020/12/23 00:17:04;;;;;;;23.07;18.30;;;14.50;99.90;;;;;;5009842;28;20421;-75
2020/12/23 00:19:31;;;;;;;21.27;16.73;;;14.50;99.90;;;;;;5011579;28;20429;-74
2020/12/23 00:21:57;;;;;;;22.73;18.33;;;14.20;99.90;;;;;;5011470;28;20425;-74
2020/12/23 00:24:22;;;;;;;24.00;17.97;;;13.90;99.90;;;;;;5012287;28;20463;-74
2020/12/23 00:26:48;;;;;;;25.13;20.17;;;13.90;99.90;;;;;;5006146;28;20930;-74
2020/12/23 00:29:14;;;;;;;21.80;18.83;;;13.90;99.90;;;;;;5010939;28;20180;-74
2020/12/23 00:31:40;;;;;;;22.77;18.73;;;13.90;99.90;;;;;;5006553;28;20186;-73
2020/12/23 00:34:06;;;;;;;26.93;20.77;;;14.00;99.90;;;;;;5011394;28;20213;-75
2020/12/23 00:36:32;;;;;;;23.50;19.43;;;14.10;99.90;;;;;;4993085;28;20827;-74
2020/12/23 00:38:58;;;;;;;23.03;18.00;;;14.20;99.90;;;;;;5009475;28;20218;-75
2020/12/23 00:41:24;;;;;;;21.63;18.43;;;14.20;99.90;;;;;;5011256;28;20435;-75
2020/12/23 00:43:50;;;;;;;21.20;18.90;;;14.30;99.90;;;;;;5010528;28;20510;-74
2020/12/23 00:46:16;;;;;;;19.60;17.70;;;14.30;99.90;;;;;;5009435;28;20189;-74
2020/12/23 00:48:42;;;;;;;23.03;18.93;;;14.40;99.90;;;;;;5009395;28;20836;-74
2020/12/23 00:51:12;;;;;;;21.10;18.70;;;14.50;99.90;;;;;;5008592;28;20228;-75
2020/12/23 00:53:39;;;;;;;20.73;18.50;;;14.50;99.90;;;;;;5011149;28;20460;-74
2020/12/23 00:56:05;;;;;;;17.60;15.80;;;14.50;99.90;;;;;;4990552;28;20503;-75
2020/12/23 00:58:31;;;;;;;15.40;13.90;;;14.60;99.90;;;;;;4993574;28;20428;-75
2020/12/23 01:00:57;;;;;;;15.50;13.90;;;14.70;99.90;;;;;;5009957;28;20181;-75
2020/12/23 01:03:23;;;;;;;13.53;12.27;;;14.70;99.90;;;;;;5010679;28;20472;-74
2020/12/23 01:05:50;;;;;;;12.97;11.77;;;14.80;99.90;;;;;;5011090;28;20456;-75
2020/12/23 01:08:15;;;;;;;13.30;11.90;;;14.90;99.90;;;;;;5011028;28;20423;-74
2020/12/23 01:10:45;;;;;;;13.60;12.20;;;14.90;99.90;;;;;;5010939;28;20525;-74
2020/12/23 01:13:11;;;;;;;12.60;11.40;;;15.00;99.90;;;;;;5010486;28;20269;-74
2020/12/23 01:15:36;;;;;;;14.00;12.63;;;15.00;99.90;;;;;;5011160;28;20512;-74
2020/12/23 01:18:03;;;;;;;13.10;11.90;;;15.00;99.90;;;;;;5014501;28;20433;-75
2020/12/23 01:20:29;;;;;;;13.20;11.90;;;15.00;99.90;;;;;;5010919;28;20654;-74
2020/12/23 01:22:55;;;;;;;14.23;12.93;;;15.10;99.90;;;;;;5014665;28;20433;-75
2020/12/23 01:25:20;;;;;;;14.90;13.00;;;15.10;99.90;;;;;;5012748;28;20520;-74
2020/12/23 01:27:46;;;;;;;13.03;11.53;;;15.00;99.90;;;;;;5015141;28;20193;-74
2020/12/23 01:30:13;;;;;;;12.60;11.50;;;15.10;99.90;;;;;;5015542;28;20175;-75
2020/12/23 01:32:38;;;;;;;13.47;12.17;;;15.10;99.90;;;;;;5015428;28;20637;-75
2020/12/23 01:35:04;;;;;;;13.77;12.43;;;15.10;99.90;;;;;;5013371;28;20539;-75
2020/12/23 01:37:30;;;;;;;15.00;13.60;;;15.10;99.90;;;;;;5015190;28;20215;-74
2020/12/23 01:39:55;;;;;;;15.63;14.03;;;15.10;99.90;;;;;;5014838;28;20225;-74
2020/12/23 01:42:21;;;;;;;16.23;14.63;;;15.10;99.90;;;;;;5013891;28;20774;-74
2020/12/23 01:44:47;;;;;;;16.70;15.00;;;15.10;99.90;;;;;;5014219;28;20273;-74
2020/12/23 01:47:20;;;;;;;17.47;15.70;;;15.00;99.90;;;;;;5013542;28;20178;-74
2020/12/23 01:49:50;;;;;;;16.50;14.80;;;15.00;99.90;;;;;;5014476;28;20174;-74
2020/12/23 01:52:20;;;;;;;16.97;15.23;;;15.00;99.90;;;;;;5013230;28;20531;-75
2020/12/23 01:54:47;;;;;;;17.77;15.80;;;15.00;99.90;;;;;;5011412;28;20465;-74
2020/12/23 01:57:13;;;;;;;16.67;15.07;;;15.00;99.90;;;;;;5010901;28;20788;-75
2020/12/23 01:59:39;;;;;;;15.40;13.97;;;14.90;99.90;;;;;;5012388;28;20414;-75
2020/12/23 02:02:29;;;;;;;16.20;14.60;;;14.90;99.90;;;;;;5011414;28;20418;-73
2020/12/23 02:04:57;;;;;;;15.37;13.97;;;15.00;99.90;;;;;;5011721;28;20183;-74
2020/12/23 02:07:24;;;;;;;14.07;12.73;;;14.90;99.90;;;;;;5012283;28;20531;-73
2020/12/23 02:09:51;;;;;;;15.57;14.07;;;15.00;99.90;;;;;;5012911;28;20429;-75
2020/12/23 02:12:17;;;;;;;13.90;12.50;;;15.00;99.90;;;;;;5012918;28;20419;-75
2020/12/23 02:14:43;;;;;;;12.57;11.47;;;15.00;99.90;;;;;;5013497;28;20451;-75
2020/12/23 02:17:09;;;;;;;12.40;11.30;;;15.00;99.90;;;;;;5011906;28;20488;-74
2020/12/23 02:19:49;;;;;;;12.93;11.33;;;15.10;99.90;;;;;;5012862;28;20426;-74
2020/12/23 02:22:23;;;;;;;12.30;11.10;;;15.10;99.90;;;;;;5013186;28;20969;-74
2020/12/23 02:24:52;;;;;;;12.63;11.33;;;15.20;99.90;;;;;;5013760;28;20436;-74
2020/12/23 02:27:19;;;;;;;12.53;10.00;;;15.30;99.90;;;;;;5013023;28;20418;-74
2020/12/23 02:29:47;;;;;;;12.60;11.30;;;15.20;99.90;;;;;;5013619;28;20781;-74
2020/12/23 02:32:13;;;;;;;11.93;10.73;;;15.20;99.90;;;;;;5012985;28;20537;-74
2020/12/23 02:34:40;;;;;;;10.73;9.70;;;15.20;99.90;;;;;;5013505;28;20545;-74
2020/12/23 02:37:07;;;;;;;10.50;9.60;;;15.20;99.90;;;;;;5012265;28;20563;-75
2020/12/23 02:39:33;;;;;;;10.33;9.43;;;15.20;99.90;;;;;;5004352;28;20759;-74
2020/12/23 02:42:01;;;;;;;11.47;10.30;;;15.20;99.90;;;;;;5011309;28;20437;-74
2020/12/23 02:44:27;;;;;;;13.30;10.00;;;15.30;99.90;;;;;;5012710;28;20533;-74
2020/12/23 02:47:02;;;;;;;11.97;10.83;;;15.30;99.90;;;;;;4994236;28;20990;-74
2020/12/23 02:49:28;;;;;;;10.40;9.40;;;15.30;99.90;;;;;;5008886;28;20437;-75
2020/12/23 02:51:55;;;;;;;12.67;10.57;;;15.30;99.90;;;;;;5013343;28;20466;-74
2020/12/23 02:54:22;;;;;;;11.27;10.10;;;15.30;99.90;;;;;;5010496;28;20810;-74
2020/12/23 02:56:47;;;;;;;14.77;11.30;;;15.30;99.90;;;;;;5011031;28;20422;-74
2020/12/23 02:59:13;;;;;;;10.63;9.63;;;15.30;99.90;;;;;;5012697;28;20420;-74
2020/12/23 03:01:39;;;;;;;12.23;10.73;;;15.30;99.90;;;;;;5013429;28;20171;-75
2020/12/23 03:04:06;;;;;;;13.13;11.83;;;15.30;99.90;;;;;;5012898;28;20189;-75
2020/12/23 03:06:32;;;;;;;11.23;9.90;;;15.30;99.90;;;;;;5012470;28;20422;-74
2020/12/23 03:08:58;;;;;;;12.67;11.37;;;15.40;99.90;;;;;;5012802;28;20755;-74
2020/12/23 03:11:24;;;;;;;12.60;11.30;;;15.40;99.90;;;;;;5011232;28;20443;-74
2020/12/23 03:13:50;;;;;;;11.27;10.17;;;15.40;99.90;;;;;;5012912;28;20222;-74
2020/12/23 03:16:15;;;;;;;11.40;10.30;;;15.40;99.90;;;;;;5012218;28;20250;-75
2020/12/23 03:18:41;;;;;;;10.80;9.80;;;15.40;99.90;;;;;;5012924;28;20178;-74
2020/12/23 03:21:08;;;;;;;12.50;11.30;;;15.40;99.90;;;;;;5012561;28;20623;-75
2020/12/23 03:23:34;;;;;;;12.63;11.33;;;15.40;99.90;;;;;;5011195;28;20277;-74
2020/12/23 03:26:00;;;;;;;11.00;9.97;;;15.40;99.90;;;;;;5015598;28;20440;-74
2020/12/23 03:28:26;;;;;;;9.97;8.97;;;15.40;99.90;;;;;;5023379;28;21332;-74
2020/12/23 03:30:52;;;;;;;10.10;9.23;;;15.40;99.90;;;;;;5014032;28;20421;-74
2020/12/23 03:33:18;;;;;;;10.80;9.80;;;15.40;99.90;;;;;;5011976;28;20620;-74
2020/12/23 03:35:44;;;;;;;9.93;8.93;;;15.40;99.90;;;;;;5011678;28;20448;-74
2020/12/23 03:38:09;;;;;;;10.77;9.60;;;15.50;99.90;;;;;;5011710;28;20508;-75
2020/12/23 03:40:35;;;;;;;12.67;11.37;;;15.50;99.90;;;;;;5012730;28;20636;-74
2020/12/23 03:43:01;;;;;;;10.70;9.60;;;15.50;99.90;;;;;;5012280;28;20193;-74
2020/12/23 03:45:26;;;;;;;12.53;11.23;;;15.50;99.90;;;;;;5011659;28;20587;-74
2020/12/23 03:47:52;;;;;;;13.17;11.87;;;15.50;99.90;;;;;;5012219;28;20183;-74
2020/12/23 03:50:18;;;;;;;12.20;11.00;;;15.50;99.90;;;;;;5011269;28;20417;-74
2020/12/23 03:52:44;;;;;;;11.50;10.37;;;15.40;99.90;;;;;;5012119;28;20437;-74
2020/12/23 03:55:10;;;;;;;12.33;11.23;;;15.50;99.90;;;;;;5012143;28;20469;-75
2020/12/23 03:57:36;;;;;;;12.30;11.13;;;15.50;99.90;;;;;;5010367;28;20297;-74
2020/12/23 04:00:06;;;;;;;12.53;11.30;;;15.50;99.90;;;;;;5012730;28;20257;-74
2020/12/23 04:02:32;;;;;;;12.73;11.53;;;15.50;99.90;;;;;;5011709;28;20535;-74
2020/12/23 04:04:58;;;;;;;13.30;12.07;;;15.50;99.90;;;;;;5012445;28;20520;-74
2020/12/23 04:07:24;;;;;;;13.20;11.83;;;15.50;99.90;;;;;;5010617;28;20530;-73
2020/12/23 04:09:49;;;;;;;13.57;12.27;;;15.50;99.90;;;;;;5011825;28;20429;-76
2020/12/23 04:12:15;;;;;;;13.90;12.60;;;15.40;99.90;;;;;;5011433;28;20429;-76
2020/12/23 04:14:41;;;;;;;17.57;13.50;;;15.40;99.90;;;;;;5011991;28;20211;-75
2020/12/23 04:17:07;;;;;;;16.03;13.17;;;15.40;99.90;;;;;;5012518;28;20628;-75
2020/12/23 04:19:32;;;;;;;14.57;13.10;;;15.40;99.90;;;;;;5011001;28;20296;-75
2020/12/23 04:21:58;;;;;;;14.50;13.00;;;15.40;99.90;;;;;;5012184;28;20670;-75
2020/12/23 04:24:24;;;;;;;14.70;13.30;;;15.40;99.90;;;;;;5011165;28;20190;-75
2020/12/23 04:26:49;;;;;;;14.83;13.33;;;15.30;99.90;;;;;;5011365;28;20222;-75
2020/12/23 04:29:15;;;;;;;15.00;13.40;;;15.30;99.90;;;;;;5011269;28;20201;-75
2020/12/23 04:31:42;;;;;;;14.97;13.43;;;15.30;99.90;;;;;;5010992;28;20184;-75
2020/12/23 04:34:07;;;;;;;15.77;14.07;;;15.30;99.90;;;;;;5011975;28;20240;-75
2020/12/23 04:36:33;;;;;;;15.20;13.73;;;15.20;99.90;;;;;;5010094;28;20457;-73
2020/12/23 04:38:59;;;;;;;15.60;14.10;;;15.20;99.90;;;;;;5011972;28;20187;-73
2020/12/23 04:41:28;;;;;;;13.93;12.53;;;15.00;99.90;;;;;;5010726;28;20548;-73
2020/12/23 04:43:55;;;;;;;14.13;12.73;;;15.00;99.90;;;;;;5011191;28;20187;-74
2020/12/23 04:46:32;;;;;;;13.53;12.33;;;15.00;99.90;;;;;;5009468;28;20423;-75
2020/12/23 04:48:59;;;;;;;13.43;12.27;;;15.10;99.90;;;;;;5011559;28;20418;-75
2020/12/23 04:51:36;;;;;;;14.93;13.53;;;15.10;99.90;;;;;;5014559;28;20432;-75
2020/12/23 04:54:06;;;;;;;13.90;12.60;;;15.10;99.90;;;;;;4996431;28;20494;-75
2020/12/23 04:56:33;;;;;;;14.07;12.67;;;15.10;99.90;;;;;;5014448;28;20429;-75
2020/12/23 04:59:01;;;;;;;15.13;12.93;;;15.10;99.90;;;;;;5015807;28;20422;-75
2020/12/23 05:01:27;;;;;;;13.60;12.20;;;15.20;99.90;;;;;;5014428;28;20933;-74
2020/12/23 05:03:54;;;;;;;12.93;11.60;;;15.20;99.90;;;;;;5015454;28;20516;-75
2020/12/23 05:06:21;;;;;;;11.87;10.80;;;15.20;99.90;;;;;;5015282;28;20424;-75
2020/12/23 05:08:48;;;;;;;12.97;11.70;;;15.20;99.90;;;;;;5015676;28;20411;-75
2020/12/23 05:11:14;;;;;;;11.47;10.47;;;15.20;99.90;;;;;;5016538;28;20417;-77
2020/12/23 05:13:41;;;;;;;12.57;11.47;;;15.30;99.90;;;;;;5034872;28;20460;-75
2020/12/23 05:16:09;;;;;;;11.90;10.70;;;15.30;99.90;;;;;;5015421;28;20449;-75
2020/12/23 05:18:37;;;;;;;12.07;10.87;;;15.30;99.90;;;;;;5014104;28;20429;-75
2020/12/23 05:21:14;;;;;;;13.60;12.40;;;15.30;99.90;;;;;;5015219;28;20429;-75
2020/12/23 05:23:41;;;;;;;12.10;11.10;;;15.30;99.90;;;;;;5014711;28;20425;-75
2020/12/23 05:26:07;;;;;;;11.50;10.53;;;15.30;99.90;;;;;;5014349;28;20432;-76
2020/12/23 05:28:35;;;;;;;12.80;11.70;;;15.30;99.90;;;;;;5012604;28;20430;-75
2020/12/23 05:31:03;;;;;;;12.87;11.50;;;15.30;99.90;;;;;;5014901;28;20501;-75
2020/12/23 05:33:32;;;;;;;14.17;12.87;;;15.30;99.90;;;;;;5014294;28;20508;-75
2020/12/23 05:36:00;;;;;;;13.57;12.27;;;15.20;99.90;;;;;;5014803;28;20856;-75
2020/12/23 05:38:28;;;;;;;13.53;12.23;;;15.20;99.90;;;;;;5014051;28;20412;-76
2020/12/23 05:40:54;;;;;;;11.57;10.57;;;15.20;99.90;;;;;;5014494;28;20424;-75
2020/12/23 05:43:19;;;;;;;13.23;12.03;;;15.20;99.90;;;;;;5014118;28;20479;-75
2020/12/23 05:45:45;;;;;;;12.87;11.77;;;15.20;99.90;;;;;;5014375;28;20476;-75
2020/12/23 05:48:14;;;;;;;11.33;10.30;;;15.20;99.90;;;;;;5014817;28;20180;-75
2020/12/23 05:50:40;;;;;;;10.90;9.70;;;15.20;99.90;;;;;;5013984;28;20180;-75
2020/12/23 05:53:15;;;;;;;10.80;9.90;;;15.20;99.90;;;;;;5014608;28;20778;-75
2020/12/23 05:55:49;;;;;;;12.30;11.27;;;15.30;99.90;;;;;;5013539;28;20481;-75
2020/12/23 05:58:24;;;;;;;10.97;9.97;;;15.30;99.90;;;;;;5014149;28;20420;-75
2020/12/23 06:00:51;;;;;;;11.33;10.23;;;15.20;99.90;;;;;;5014007;28;20473;-75
2020/12/23 06:03:47;;;;;;;11.70;10.50;;;15.30;99.90;;;;;;5014285;28;20413;-74
2020/12/23 06:06:17;;;;;;;11.43;10.40;;;15.30;99.90;;;;;;5014338;28;20422;-74
2020/12/23 06:08:43;;;;;;;10.70;9.70;;;15.20;99.90;;;;;;5012555;28;20421;-74
2020/12/23 06:11:29;;;;;;;11.47;10.47;;;15.20;99.90;;;;;;5013896;28;20481;-74
2020/12/23 06:14:14;;;;;;;11.70;10.60;;;15.10;99.90;;;;;;5014529;28;20537;-74
2020/12/23 06:16:43;;;;;;;12.90;11.50;;;15.10;99.90;;;;;;5013544;28;20428;-74
2020/12/23 06:19:20;;;;;;;13.90;12.50;;;15.00;99.90;;;;;;5013854;28;20437;-74
2020/12/23 06:21:47;;;;;;;12.30;11.10;;;15.00;99.90;;;;;;5013575;28;20437;-73
2020/12/23 06:24:13;;;;;;;13.13;11.50;;;15.00;99.90;;;;;;5014073;28;20464;-72
2020/12/23 06:26:48;;;;;;;12.80;11.40;;;14.90;99.90;;;;;;5013593;28;21018;-73
2020/12/23 06:29:19;;;;;;;12.53;11.00;;;14.90;99.90;;;;;;5012961;28;20856;-75
2020/12/23 06:31:48;;;;;;;12.90;11.07;;;14.80;99.90;;;;;;5013907;28;20416;-75
2020/12/23 06:34:19;;;;;;;11.70;10.50;;;14.80;99.90;;;;;;5012555;28;20496;-75
2020/12/23 06:36:47;;;;;;;14.20;12.73;;;14.70;99.90;;;;;;5013289;28;21061;-74
2020/12/23 06:39:18;;;;;;;11.03;9.93;;;14.70;99.90;;;;;;5014035;28;20413;-75
2020/12/23 06:41:51;;;;;;;9.77;8.87;;;14.80;99.90;;;;;;5013629;28;20441;-77
2020/12/23 06:44:18;;;;;;;10.53;9.53;;;14.70;99.90;;;;;;5012789;28;20410;-75
2020/12/23 06:46:58;;;;;;;11.10;10.03;;;14.70;99.90;;;;;;5013319;28;20464;-85
2020/12/23 06:50:01;;;;;;;11.47;10.27;;;14.70;99.90;;;;;;5008544;28;20496;-81
2020/12/23 06:52:27;;;;;;;11.70;10.60;;;14.70;99.90;;;;;;4951548;29;20435;-80
2020/12/23 06:54:55;;;;;;;10.70;9.67;;;14.70;99.90;;;;;;4997101;28;20571;-81
2020/12/23 06:57:36;;;;;;;10.40;9.50;;;14.70;99.90;;;;;;5012945;28;20406;-80
2020/12/23 07:00:11;;;;;;;10.43;9.50;;;14.70;99.90;;;;;;5010944;28;20437;-80
2020/12/23 07:02:44;;;;;;;10.63;9.63;;;14.60;99.90;;;;;;5012730;28;20904;-80
2020/12/23 07:05:22;;;;;;;11.53;10.40;;;14.60;99.90;;;;;;5001373;28;20473;-80
2020/12/23 07:07:59;;;;;;;11.40;10.37;;;14.60;99.90;;;;;;4995230;28;20729;-80
2020/12/23 07:10:31;;;;;;;9.70;8.70;;;14.60;99.90;;;;;;5010234;28;20835;-79
2020/12/23 07:13:02;;;;;;;11.00;9.90;;;14.60;99.90;;;;;;5010833;28;20418;-77
2020/12/23 07:15:29;;;;;;;10.93;9.80;;;14.60;99.90;;;;;;5011266;28;20463;-80
2020/12/23 07:18:07;;;;;;;10.53;9.63;;;14.60;99.90;;;;;;5011977;28;20428;-75
2020/12/23 07:20:39;;;;;;;10.60;9.50;;;14.60;99.90;;;;;;5010759;28;20397;-80
2020/12/23 07:23:07;;;;;;;10.03;9.07;;;14.50;99.90;;;;;;5012996;28;20452;-80
2020/12/23 07:25:49;;;;;;;10.93;9.83;;;14.50;99.90;;;;;;5010595;28;20754;-77
2020/12/23 07:28:22;;;;;;;10.07;9.20;;;14.50;99.90;;;;;;5010904;28;21454;-77
2020/12/23 07:30:47;;;;;;;9.97;9.07;;;14.50;99.90;;;;;;5011558;28;20424;-78
2020/12/23 07:33:18;;;;;;;6.03;5.63;;;14.50;99.90;;;;;;5012536;28;20428;-76
2020/12/23 07:35:52;;;;;;;6.07;5.63;;;14.40;99.90;;;;;;5016986;28;20204;-76
2020/12/23 07:38:19;;;;;;;5.93;5.53;;;14.50;99.90;;;;;;5025409;28;20490;-81
2020/12/23 07:40:45;;;;;;;6.37;5.97;;;14.50;99.90;;;;;;5009236;28;20797;-80
2020/12/23 07:43:14;;;;;;;6.40;6.00;;;14.50;99.90;;;;;;5010918;28;20429;-79
2020/12/23 07:45:40;;;;;;;7.30;6.80;;;14.70;99.90;;;;;;5012991;28;20471;-80
2020/12/23 07:48:09;;;;;;;8.83;8.03;;;14.90;99.90;;;;;;5011318;28;20430;-80
2020/12/23 07:50:39;;;;;;;10.47;9.47;;;15.00;99.90;;;;;;5011229;28;20429;-80
2020/12/23 07:53:20;;;;;;;10.33;9.53;;;15.10;99.90;;;;;;5004535;28;20459;-82
2020/12/23 07:55:47;;;;;;;8.93;8.17;;;15.20;99.90;;;;;;5014354;28;20455;-81
2020/12/23 07:58:14;;;;;;;7.90;7.10;;;15.30;99.90;;;;;;5013641;28;20429;-81
2020/12/23 08:00:41;;;;;;;8.57;7.70;;;15.50;99.90;;;;;;5010921;28;20425;-79
2020/12/23 08:03:11;;;;;;;6.77;6.27;;;15.60;99.90;;;;;;5012434;28;20430;-81
2020/12/23 08:05:37;;;;;;;5.00;4.63;;;15.70;99.90;;;;;;5016761;28;20461;-81
2020/12/23 08:08:06;;;;;;;5.83;5.40;;;15.80;99.90;;;;;;5018347;28;20476;-81
2020/12/23 08:10:32;;;;;;;5.83;5.43;;;15.90;99.90;;;;;;5011599;28;20501;-81
2020/12/23 08:13:08;;;;;;;5.17;4.83;;;15.90;99.90;;;;;;5018066;28;20517;-81
2020/12/23 08:15:34;;;;;;;5.30;5.00;;;15.80;99.90;;;;;;4998958;28;20458;-81
2020/12/23 08:18:12;;;;;;;6.13;5.73;;;15.60;99.90;;;;;;5010640;28;20438;-81
2020/12/23 08:20:37;;;;;;;7.47;6.83;;;15.70;99.90;;;;;;5009440;28;20180;-86
2020/12/23 08:23:03;;;;;;;6.30;5.80;;;15.80;99.90;;;;;;5018395;28;20449;-79
2020/12/23 08:25:30;;;;;;;10.13;9.13;;;15.80;99.90;;;;;;5009883;28;20271;-78
2020/12/23 08:27:58;;;;;;;8.90;8.10;;;15.90;99.90;;;;;;5011946;28;20928;-79
2020/12/23 08:30:26;;;;;;;10.77;9.70;;;16.00;99.90;;;;;;5017144;28;20522;-80
2020/12/23 08:33:13;;;;;;;7.10;6.57;;;16.00;99.90;;;;;;5014612;28;20415;-79
2020/12/23 08:35:45;;;;;;;7.63;7.13;;;16.00;99.90;;;;;;5019966;28;20475;-79
2020/12/23 08:38:22;;;;;;;7.17;6.63;;;15.90;99.90;;;;;;5008355;28;22210;-79
2020/12/23 08:40:50;;;;;;;6.80;6.30;;;15.90;99.90;;;;;;5003944;28;20515;-79
2020/12/23 08:43:23;;;;;;;7.07;6.57;;;15.90;99.90;;;;;;5003853;28;20770;-77
2020/12/23 08:45:50;;;;;;;7.13;6.63;;;15.90;99.90;;;;;;5013635;28;20435;-78
2020/12/23 08:48:24;;;;;;;8.70;8.00;;;15.90;99.90;;;;;;5005420;28;20781;-78
2020/12/23 08:50:58;;;;;;;7.30;6.70;;;16.00;99.90;;;;;;5016826;28;20425;-78
2020/12/23 08:53:30;;;;;;;5.80;5.40;;;16.00;99.90;;;;;;5006930;28;20442;-77
2020/12/23 08:55:56;;;;;;;5.03;4.63;;;16.10;99.90;;;;;;5031861;28;20505;-77
2020/12/23 08:58:22;;;;;;;5.63;5.23;;;16.10;99.90;;;;;;5002121;28;20499;-77
2020/12/23 09:01:01;;;;;;;5.87;5.27;;;16.10;99.90;;;;;;5004365;28;20168;-78
2020/12/23 09:03:27;;;;;;;5.50;5.20;;;16.10;99.90;;;;;;5010643;28;20416;-77
2020/12/23 09:05:56;;;;;;;4.97;4.70;;;16.10;99.90;;;;;;5011084;28;20491;-78
2020/12/23 09:08:26;;;;;;;5.87;5.47;;;16.20;99.90;;;;;;5007484;28;20431;-77
2020/12/23 09:10:57;;;;;;;5.73;5.23;;;16.20;99.90;;;;;;5013621;28;20416;-84
2020/12/23 09:13:30;;;;;;;6.10;5.60;;;16.20;99.90;;;;;;5011998;28;20417;-81
2020/12/23 09:15:57;;;;;;;5.83;5.40;;;16.20;99.90;;;;;;5008278;28;20437;-81
2020/12/23 09:18:23;;;;;;;5.93;5.53;;;16.10;99.90;;;;;;5001960;28;20538;-73
2020/12/23 09:20:58;;;;;;;9.20;5.77;;;16.20;99.90;;;;;;4997889;28;20428;-76
2020/12/23 09:23:23;;;;;;;5.43;5.03;;;16.20;99.90;;;;;;5007174;28;20498;-76
2020/12/23 09:25:49;;;;;;;5.80;5.40;;;16.20;99.90;;;;;;5005039;28;20504;-75
2020/12/23 09:28:15;;;;;;;5.63;5.23;;;16.20;99.90;;;;;;5010188;28;20186;-76
2020/12/23 09:30:52;;;;;;;6.40;5.73;;;16.20;99.90;;;;;;5008634;28;20194;-76
2020/12/23 09:33:22;;;;;;;5.00;4.70;;;16.30;99.90;;;;;;5025844;28;20629;-73
2020/12/23 09:35:50;;;;;;;4.50;4.30;;;16.30;99.90;;;;;;5013052;28;20689;-77
2020/12/23 09:38:24;;;;;;;4.03;3.73;;;16.40;99.90;;;;;;5013347;28;20463;-76
2020/12/23 09:40:51;;;;;;;4.87;4.57;;;16.40;99.90;;;;;;5017100;28;20494;-75
2020/12/23 09:43:19;;;;;;;3.73;3.53;;;16.50;99.90;;;;;;5022660;28;20463;-75
2020/12/23 09:45:50;;;;;;;3.97;3.77;;;16.40;99.90;;;;;;5021274;28;20458;-75
2020/12/23 09:48:17;;;;;;;3.67;3.57;;;16.50;99.90;;;;;;5031271;28;20416;-76
2020/12/23 09:50:43;;;;;;;3.73;3.63;;;16.60;99.90;;;;;;5030770;28;20416;-75
2020/12/23 09:53:11;;;;;;;3.70;3.50;;;16.60;99.90;;;;;;5014893;28;20428;-76
2020/12/23 09:55:40;;;;;;;4.00;3.80;;;16.60;99.90;;;;;;5013288;28;20476;-72
2020/12/23 09:58:06;;;;;;;3.40;3.30;;;16.60;99.90;;;;;;5012713;28;20424;-71
2020/12/23 10:00:31;;;;;;;3.20;3.10;;;16.70;99.90;;;;;;5017248;28;20790;-72
2020/12/23 10:02:57;;;;;;;3.50;3.40;;;16.70;99.90;;;;;;5034509;28;20173;-71
2020/12/23 10:05:23;;;;;;;3.30;3.20;;;16.70;99.90;;;;;;5034263;28;20532;-71
2020/12/23 10:07:49;;;;;;;3.13;3.03;;;16.70;99.90;;;;;;5026118;28;20538;-71
2020/12/23 10:10:14;;;;;;;2.90;2.80;;;16.70;99.90;;;;;;5010478;28;20193;-71
2020/12/23 10:12:40;;;;;;;2.90;2.80;;;16.70;99.90;;;;;;5013890;28;20178;-71
2020/12/23 10:15:07;;;;;;;3.23;3.13;;;16.60;99.90;;;;;;5017893;28;20699;-71
2020/12/23 10:17:34;;;;;;;3.17;2.97;;;16.60;99.90;;;;;;5013962;28;20181;-73
2020/12/23 10:20:00;;;;;;;3.03;2.93;;;16.70;99.90;;;;;;5034097;28;20448;-71
2020/12/23 10:22:26;;;;;;;2.70;2.60;;;16.60;99.90;;;;;;5019702;28;20441;-71
2020/12/23 10:24:52;;;;;;;3.20;3.10;;;16.60;99.90;;;;;;5014695;28;20423;-71
2020/12/23 10:27:18;;;;;;;3.10;3.00;;;16.50;99.90;;;;;;5015557;28;20194;-71
2020/12/23 10:29:43;;;;;;;3.37;3.27;;;16.10;99.90;;;;;;5028895;28;20204;-72
2020/12/23 10:32:09;;;;;;;3.30;3.20;;;16.00;99.90;;;;;;5033748;28;20241;-72
2020/12/23 10:34:35;;;;;;;3.80;3.70;;;16.00;99.90;;;;;;5027365;28;20227;-74
2020/12/23 10:37:01;;;;;;;3.50;3.40;;;16.10;99.90;;;;;;5013780;28;20793;-72
2020/12/23 10:39:27;;;;;;;3.73;3.63;;;16.00;99.90;;;;;;5012930;28;20249;-72
2020/12/23 10:41:54;;;;;;;3.90;3.80;;;16.00;99.90;;;;;;5013043;28;20178;-72
2020/12/23 10:44:21;;;;;;;4.20;4.00;;;16.10;99.90;;;;;;5013798;28;20413;-72
2020/12/23 10:46:55;;;;;;;4.53;4.33;;;16.10;99.90;;;;;;5013361;28;20429;-73
2020/12/23 10:49:21;;;;;;;4.50;4.40;;;16.20;99.90;;;;;;5013910;28;20396;-73
2020/12/23 10:51:51;;;;;;;4.23;4.03;;;16.20;99.90;;;;;;5015402;28;20424;-73
2020/12/23 10:54:17;;;;;;;4.20;4.10;;;16.20;99.90;;;;;;5031868;28;20553;-72
2020/12/23 10:56:43;;;;;;;4.60;4.30;;;16.20;99.90;;;;;;5022947;28;20413;-73
2020/12/23 10:59:08;;;;;;;4.03;3.93;;;16.20;99.90;;;;;;5012576;28;20508;-73
2020/12/23 11:01:34;;;;;;;4.17;4.07;;;16.10;99.90;;;;;;5015796;28;20421;-74
2020/12/23 11:04:00;;;;;;;4.00;3.90;;;16.10;99.90;;;;;;5014516;28;20180;-72
2020/12/23 11:06:25;;;;;;;4.57;4.13;;;15.90;99.90;;;;;;5022610;28;20180;-72
2020/12/23 11:08:51;;;;;;;3.80;3.70;;;15.90;99.90;;;;;;5013359;28;20518;-72
2020/12/23 11:11:17;;;;;;;3.30;3.20;;;15.80;99.90;;;;;;5007975;28;20586;-71
2020/12/23 11:13:43;;;;;;;3.43;3.33;;;15.50;99.90;;;;;;5012682;28;20184;-72
2020/12/23 11:16:13;;;;;;;3.97;3.80;;;15.50;99.90;;;;;;4995943;28;20184;-71
2020/12/23 11:18:42;;;;;;;4.13;4.03;;;15.60;99.90;;;;;;5012498;28;20184;-74
2020/12/23 11:21:09;;;;;;;3.20;3.10;;;15.40;99.90;;;;;;5021764;28;20446;-72
2020/12/23 11:23:35;;;;;;;4.27;3.97;;;15.40;99.90;;;;;;5016705;28;20426;-74
2020/12/23 11:26:01;;;;;;;3.87;3.77;;;15.10;99.90;;;;;;5012163;28;20444;-73
2020/12/23 11:28:31;;;;;;;3.90;3.80;;;15.10;99.90;;;;;;5012394;28;20463;-73
2020/12/23 11:30:59;;;;;;;2.80;2.70;;;15.30;99.90;;;;;;5012204;28;20413;-73
2020/12/23 11:33:27;;;;;;;2.60;2.50;;;15.20;99.90;;;;;;5011832;28;20944;-73
2020/12/23 11:35:53;;;;;;;2.67;2.57;;;15.30;99.90;;;;;;5012195;28;20458;-73
2020/12/23 11:38:18;;;;;;;2.77;2.57;;;15.50;99.90;;;;;;5012654;28;20465;-72
2020/12/23 11:40:44;;;;;;;3.30;3.20;;;15.30;99.90;;;;;;5012225;28;20431;-72
2020/12/23 11:43:10;;;;;;;2.50;2.40;;;15.30;99.90;;;;;;5012380;28;20175;-73
2020/12/23 11:45:35;;;;;;;2.70;2.60;;;15.40;99.90;;;;;;5011243;28;20245;-72
2020/12/23 11:48:01;;;;;;;2.60;2.40;;;15.60;99.90;;;;;;5011023;28;20178;-72
2020/12/23 11:50:27;;;;;;;2.70;2.60;;;15.40;99.90;;;;;;5012583;28;20175;-73
2020/12/23 11:52:53;;;;;;;2.77;2.67;;;15.30;99.90;;;;;;5012100;28;20187;-73
2020/12/23 11:55:18;;;;;;;2.40;2.30;;;15.30;99.90;;;;;;5011430;28;20214;-72
2020/12/23 11:57:47;;;;;;;2.90;2.60;;;15.30;99.90;;;;;;5012075;28;20199;-72
2020/12/23 12:00:13;;;;;;;2.50;2.40;;;15.30;99.90;;;;;;5010044;28;20542;-72
2020/12/23 12:02:39;;;;;;;3.10;2.90;;;15.10;99.90;;;;;;5012556;28;20410;-75
2020/12/23 12:05:08;;;;;;;3.60;3.40;;;15.20;99.90;;;;;;5012065;28;20416;-72
2020/12/23 12:07:34;;;;;;;2.80;2.70;;;15.20;99.90;;;;;;5011462;28;20824;-73
2020/12/23 12:10:00;;;;;;;2.73;2.63;;;15.30;99.90;;;;;;5011836;28;20398;-73
2020/12/23 12:12:26;;;;;;;2.97;2.87;;;15.50;99.90;;;;;;5003380;28;20191;-72
2020/12/23 12:14:52;;;;;;;3.17;3.07;;;15.70;99.90;;;;;;5004617;28;20694;-72
2020/12/23 12:17:18;;;;;;;2.63;2.53;;;15.80;99.90;;;;;;5009489;28;20513;-72
2020/12/23 12:19:44;;;;;;;4.07;3.13;;;15.70;99.90;;;;;;5010710;28;20424;-72
2020/12/23 12:22:10;;;;;;;2.73;2.63;;;15.90;99.90;;;;;;5008348;28;20183;-71
2020/12/23 12:24:36;;;;;;;2.80;2.70;;;16.10;99.90;;;;;;5008500;28;20541;-70
2020/12/23 12:27:02;;;;;;;2.83;2.67;;;16.00;99.90;;;;;;5005395;28;20182;-70
2020/12/23 12:29:27;;;;;;;3.87;3.70;;;16.00;99.90;;;;;;5010910;28;20408;-70
2020/12/23 12:31:53;;;;;;;57.87;52.13;;;15.70;99.90;;;;;;5010550;28;20418;-70
2020/12/23 12:34:19;;;;;;;76.57;69.17;;;15.80;99.90;;;;;;5011654;28;20261;-71
2020/12/23 12:36:45;;;;;;;113.17;101.20;;;15.70;99.90;;;;;;5009391;28;20250;-71
2020/12/23 12:39:11;;;;;;;36.03;19.07;;;15.60;99.90;;;;;;5012441;28;20424;-71